Time;durP1;ratioP1;P1;durP2;ratioP2;P2;SDS_P1;SDS_P2;PMS_P1;PMS_P2;Temp;Humidity;BMP_temperature;BMP_pressure;BME280_temperature;BME280_humidity;BME280_pressure;Samples;Min_cycle;Max_cycle;Signal;HPM_P1;HPM_P2
2022/02/16 00:02:13;;;;;;;0.00;0.00;;;;;21.10;100684.00;;;;5125586;28;20046;-76
2022/02/16 00:04:44;;;;;;;0.00;0.00;;;;;21.00;100693.00;;;;5127509;28;20512;-75
2022/02/16 00:07:13;;;;;;;0.00;0.00;;;;;20.90;100701.00;;;;5126528;27;20498;-76
2022/02/16 00:09:43;;;;;;;0.00;0.00;;;;;20.90;100698.00;;;;5125187;28;20066;-76
2022/02/16 00:12:12;;;;;;;0.00;0.00;;;;;20.80;100693.00;;;;5125314;28;20058;-77
2022/02/16 00:14:42;;;;;;;0.00;0.00;;;;;20.70;100701.00;;;;5126388;28;20044;-77
2022/02/16 00:17:11;;;;;;;0.00;0.00;;;;;20.50;100695.00;;;;5127351;27;20039;-76
2022/02/16 00:19:41;;;;;;;0.00;0.00;;;;;20.40;100696.00;;;;5127663;27;20494;-77
2022/02/16 00:22:11;;;;;;;0.00;0.00;;;;;20.30;100711.00;;;;5126281;27;20042;-77
2022/02/16 00:24:40;;;;;;;0.00;0.00;;;;;20.10;100677.00;;;;5126972;27;20517;-77
2022/02/16 00:27:09;;;;;;;0.00;0.00;;;;;20.10;100691.00;;;;5125678;28;20076;-77
2022/02/16 00:29:39;;;;;;;0.00;0.00;;;;;19.90;100711.00;;;;5126608;27;20396;-77
2022/02/16 00:32:13;;;;;;;0.00;0.00;;;;;19.90;100693.00;;;;5108831;28;20047;-77
2022/02/16 00:34:43;;;;;;;0.00;0.00;;;;;19.80;100707.00;;;;5127167;27;20438;-76
2022/02/16 00:37:13;;;;;;;0.00;0.00;;;;;19.90;100684.00;;;;5108557;28;20589;-77
2022/02/16 00:39:42;;;;;;;0.00;0.00;;;;;20.00;100712.00;;;;5126064;27;20047;-77
2022/02/16 00:42:12;;;;;;;0.00;0.00;;;;;20.20;100715.00;;;;5124503;28;20047;-77
2022/02/16 00:44:42;;;;;;;0.00;0.00;;;;;20.30;100711.00;;;;5125497;28;20062;-77
2022/02/16 00:47:12;;;;;;;0.00;0.00;;;;;20.40;100714.00;;;;5125550;28;20043;-77
2022/02/16 00:49:42;;;;;;;0.03;0.03;;;;;20.20;100705.00;;;;5125636;28;20043;-77
2022/02/16 00:52:13;;;;;;;0.05;0.05;;;;;20.00;100703.00;;;;5108122;28;20460;-77
2022/02/16 00:54:43;;;;;;;0.00;0.00;;;;;20.00;100703.00;;;;5125323;28;20066;-77
2022/02/16 00:57:12;;;;;;;0.00;0.00;;;;;19.80;100721.00;;;;5127026;27;20054;-77
2022/02/16 00:59:42;;;;;;;0.00;0.00;;;;;19.80;100724.00;;;;5127121;27;20042;-77
2022/02/16 01:02:12;;;;;;;0.00;0.00;;;;;19.80;100723.00;;;;5108361;28;20053;-77
2022/02/16 01:04:42;;;;;;;0.00;0.00;;;;;19.70;100712.00;;;;5126793;27;20046;-77
2022/02/16 01:07:12;;;;;;;0.00;0.00;;;;;19.50;100707.00;;;;5128301;27;20055;-77
2022/02/16 01:09:42;;;;;;;0.00;0.00;;;;;19.40;100703.00;;;;5130406;27;20494;-77
2022/02/16 01:12:11;;;;;;;0.00;0.00;;;;;19.40;100710.00;;;;5130161;27;20050;-77
2022/02/16 01:14:41;;;;;;;0.00;0.00;;;;;19.30;100692.00;;;;5112236;27;20043;-77
2022/02/16 01:17:20;;;;;;;0.00;0.00;;;;;19.20;100701.00;;;;5127872;27;20043;-77
2022/02/16 01:19:54;;;;;;;0.00;0.00;;;;;19.30;100709.00;;;;5126396;27;20051;-77
2022/02/16 01:22:27;;;;;;;0.00;0.00;;;;;19.30;100710.00;;;;5125051;27;20039;-77
2022/02/16 01:24:58;;;;;;;0.00;0.00;;;;;19.40;100706.00;;;;5125265;27;20058;-77
2022/02/16 01:27:28;;;;;;;0.00;0.00;;;;;19.50;100682.00;;;;5127577;27;20134;-77
2022/02/16 01:29:59;;;;;;;0.00;0.00;;;;;19.60;100703.00;;;;5128453;27;20047;-77
2022/02/16 01:32:41;;;;;;;0.00;0.00;;;;;19.60;100699.00;;;;5113477;27;20058;-76
2022/02/16 01:35:14;;;;;;;0.00;0.00;;;;;19.70;100683.00;;;;5111854;27;20134;-77
2022/02/16 01:37:44;;;;;;;0.00;0.00;;;;;19.60;100680.00;;;;5128281;27;20047;-76
2022/02/16 01:40:16;;;;;;;0.00;0.00;;;;;19.60;100708.00;;;;5128830;27;20039;-77
2022/02/16 01:42:48;;;;;;;0.00;0.00;;;;;19.60;100705.00;;;;5127315;27;20055;-76
2022/02/16 01:45:32;;;;;;;0.00;0.00;;;;;19.70;100672.00;;;;5113067;27;20043;-77
2022/02/16 01:48:05;;;;;;;0.00;0.00;;;;;19.60;100696.00;;;;5129698;27;20043;-77
2022/02/16 01:50:34;;;;;;;0.00;0.00;;;;;19.60;100699.00;;;;5128503;27;20078;-77
2022/02/16 01:53:09;;;;;;;0.35;0.35;;;;;19.80;100686.00;;;;5112380;27;20707;-77
2022/02/16 01:55:46;;;;;;;0.00;0.00;;;;;19.70;100698.00;;;;5127977;27;20058;-76
2022/02/16 01:58:18;;;;;;;0.00;0.00;;;;;19.60;100689.00;;;;5127600;27;20092;-77
2022/02/16 02:01:14;;;;;;;0.00;0.00;;;;;19.40;100709.00;;;;5128812;27;20058;-77
2022/02/16 02:03:55;;;;;;;0.00;0.00;;;;;19.20;100682.00;;;;5127874;27;20047;-76
2022/02/16 02:06:25;;;;;;;;;;;;;19.10;100711.00;;;;5128390;27;20088;-77
2022/02/16 02:08:55;;;;;;;0.00;0.00;;;;;18.80;100697.00;;;;5127832;27;20351;-77
2022/02/16 02:11:26;;;;;;;0.00;0.00;;;;;18.70;100700.00;;;;5110573;27;20047;-76
2022/02/16 02:14:10;;;;;;;0.00;0.00;;;;;18.60;100694.00;;;;5127363;27;20074;-77
2022/02/16 02:16:56;;;;;;;0.00;0.00;;;;;18.50;100685.00;;;;5127518;27;20039;-77
2022/02/16 02:19:26;;;;;;;0.00;0.00;;;;;18.50;100702.00;;;;5127044;27;20042;-77
2022/02/16 02:22:00;;;;;;;0.00;0.00;;;;;18.40;100702.00;;;;5127252;27;20051;-77
2022/02/16 02:24:30;;;;;;;0.00;0.00;;;;;18.30;100686.00;;;;5127509;27;20043;-78
2022/02/16 02:27:00;;;;;;;0.00;0.00;;;;;18.30;100698.00;;;;5127187;27;20047;-77
2022/02/16 02:29:29;;;;;;;0.00;0.00;;;;;18.20;100694.00;;;;5127443;27;20174;-77
2022/02/16 02:32:02;;;;;;;0.00;0.00;;;;;18.10;100693.00;;;;5112474;27;20081;-76
2022/02/16 02:34:32;;;;;;;0.00;0.00;;;;;18.00;100688.00;;;;5127761;27;20530;-77
2022/02/16 02:37:02;;;;;;;0.00;0.00;;;;;18.00;100698.00;;;;5126925;27;20062;-77
2022/02/16 02:39:31;;;;;;;0.00;0.00;;;;;17.90;100687.00;;;;5128871;27;20046;-77
2022/02/16 02:42:01;;;;;;;0.00;0.00;;;;;17.90;100667.00;;;;5128637;27;20139;-77
2022/02/16 02:44:31;;;;;;;0.00;0.00;;;;;17.90;100688.00;;;;5126556;27;20059;-77
2022/02/16 02:47:01;;;;;;;0.05;0.05;;;;;17.80;100681.00;;;;5109609;27;20544;-78
2022/02/16 02:49:35;;;;;;;0.00;0.00;;;;;17.80;100704.00;;;;5126521;27;20065;-78
2022/02/16 02:52:05;;;;;;;0.00;0.00;;;;;17.90;100699.00;;;;5127125;27;20043;-80
2022/02/16 02:54:35;;;;;;;0.00;0.00;;;;;17.80;100681.00;;;;5126686;27;20051;-79
2022/02/16 02:57:05;;;;;;;0.15;0.15;;;;;17.70;100675.00;;;;5126989;27;20513;-81
2022/02/16 02:59:35;;;;;;;0.00;0.00;;;;;17.60;100681.00;;;;5126489;27;20565;-80
2022/02/16 03:02:05;;;;;;;0.00;0.00;;;;;17.50;100676.00;;;;5127807;27;20371;-77
2022/02/16 03:04:35;;;;;;;0.00;0.00;;;;;17.60;100667.00;;;;5126842;27;20511;-77
2022/02/16 03:07:04;;;;;;;0.00;0.00;;;;;17.70;100675.00;;;;5128330;27;20088;-80
2022/02/16 03:09:34;;;;;;;0.00;0.00;;;;;17.70;100657.00;;;;5126337;27;20174;-79
2022/02/16 03:12:04;;;;;;;0.00;0.00;;;;;17.70;100648.00;;;;5127233;27;20440;-79
2022/02/16 03:14:37;;;;;;;0.00;0.00;;;;;17.70;100658.00;;;;5128104;27;20054;-78
2022/02/16 03:17:07;;;;;;;0.00;0.00;;;;;17.80;100669.00;;;;5126680;27;20112;-82
2022/02/16 03:19:40;;;;;;;0.00;0.00;;;;;17.70;100655.00;;;;5127938;27;20498;-78
2022/02/16 03:22:10;;;;;;;0.00;0.00;;;;;17.80;100675.00;;;;5109465;27;20043;-78
2022/02/16 03:24:39;;;;;;;0.00;0.00;;;;;18.00;100661.00;;;;5126101;27;20073;-78
2022/02/16 03:27:09;;;;;;;0.00;0.00;;;;;18.10;100666.00;;;;5125320;27;20057;-81
2022/02/16 03:29:59;;;;;;;0.00;0.00;;;;;18.30;100651.00;;;;5125475;27;20524;-77
2022/02/16 03:32:36;;;;;;;0.00;0.00;;;;;18.70;100635.00;;;;5125600;27;20067;-76
2022/02/16 03:35:06;;;;;;;0.00;0.00;;;;;18.90;100658.00;;;;5125884;27;20051;-77
2022/02/16 03:37:36;;;;;;;0.00;0.00;;;;;18.80;100635.00;;;;5109209;27;20133;-77
2022/02/16 03:40:07;;;;;;;;;;;;;18.70;100656.00;;;;5126456;27;20051;-77
2022/02/16 03:42:37;;;;;;;0.00;0.00;;;;;18.50;100637.00;;;;5125851;27;19923;-78
2022/02/16 03:45:07;;;;;;;0.00;0.00;;;;;18.30;100635.00;;;;5109588;27;20111;-77
2022/02/16 03:47:53;;;;;;;0.00;0.00;;;;;18.20;100645.00;;;;5111880;28;20104;-78
2022/02/16 03:50:25;;;;;;;0.00;0.00;;;;;18.10;100643.00;;;;5125692;27;20061;-78
2022/02/16 03:52:55;;;;;;;0.00;0.00;;;;;18.10;100625.00;;;;5125747;28;20047;-77
2022/02/16 03:55:25;;;;;;;0.00;0.00;;;;;18.00;100641.00;;;;5125925;28;20520;-79
2022/02/16 03:57:54;;;;;;;0.00;0.00;;;;;18.00;100624.00;;;;5125485;28;20054;-77
2022/02/16 04:00:25;;;;;;;0.00;0.00;;;;;17.90;100646.00;;;;5125638;28;20053;-78
2022/02/16 04:02:58;;;;;;;0.00;0.00;;;;;17.90;100652.00;;;;5125803;28;20520;-80
2022/02/16 04:05:30;;;;;;;0.00;0.00;;;;;17.90;100611.00;;;;5126142;28;20055;-80
2022/02/16 04:08:00;;;;;;;0.00;0.00;;;;;17.80;100629.00;;;;5109379;28;20142;-78
2022/02/16 04:10:29;;;;;;;0.00;0.00;;;;;17.60;100634.00;;;;5125520;28;20047;-79
2022/02/16 04:12:59;;;;;;;0.00;0.00;;;;;17.50;100632.00;;;;5127330;27;20088;-79
2022/02/16 04:15:29;;;;;;;0.00;0.00;;;;;17.40;100604.00;;;;5126849;28;20047;-77
2022/02/16 04:18:05;;;;;;;0.00;0.00;;;;;17.20;100607.00;;;;5116967;28;20047;-79
2022/02/16 04:20:35;;;;;;;0.00;0.00;;;;;17.20;100607.00;;;;5134380;28;20051;-79
2022/02/16 04:23:08;;;;;;;0.00;0.00;;;;;17.10;100630.00;;;;5134688;28;20054;-77
2022/02/16 04:25:39;;;;;;;0.00;0.00;;;;;17.20;100613.00;;;;5134611;28;20072;-76
2022/02/16 04:28:09;;;;;;;0.00;0.00;;;;;17.20;100615.00;;;;5136763;28;20069;-77
2022/02/16 04:30:38;;;;;;;0.00;0.00;;;;;17.20;100626.00;;;;5137236;28;20059;-79
2022/02/16 04:33:11;;;;;;;0.00;0.00;;;;;17.10;100619.00;;;;5141330;28;20043;-78
2022/02/16 04:35:42;;;;;;;0.00;0.00;;;;;17.10;100626.00;;;;5147566;27;20038;-78
2022/02/16 04:38:12;;;;;;;0.32;0.22;;;;;17.10;100610.00;;;;5146371;27;20044;-79
2022/02/16 04:40:42;;;;;;;0.75;0.75;;;;;17.00;100616.00;;;;5157003;27;20037;-77
2022/02/16 04:43:11;;;;;;;0.00;0.00;;;;;16.90;100589.00;;;;5145248;27;20072;-80
2022/02/16 04:45:41;;;;;;;0.00;0.00;;;;;16.80;100593.00;;;;5119849;27;20043;-77
2022/02/16 04:48:12;;;;;;;;;;;;;16.80;100603.00;;;;5129705;27;20069;-77
2022/02/16 04:50:43;;;;;;;0.00;0.00;;;;;16.90;100601.00;;;;5128551;27;19930;-79
2022/02/16 04:53:12;;;;;;;0.00;0.00;;;;;16.90;100595.00;;;;5129457;27;20524;-78
2022/02/16 04:55:41;;;;;;;0.00;0.00;;;;;16.90;100581.00;;;;5128846;27;20074;-80
2022/02/16 04:58:15;;;;;;;0.00;0.00;;;;;16.90;100572.00;;;;5128508;27;20141;-78
2022/02/16 05:00:47;;;;;;;0.00;0.00;;;;;16.90;100578.00;;;;5129198;27;20043;-77
2022/02/16 05:03:25;;;;;;;0.00;0.00;;;;;16.80;100595.00;;;;5113646;27;20559;-77
2022/02/16 05:05:56;;;;;;;0.00;0.00;;;;;16.90;100595.00;;;;5128508;27;20598;-78
2022/02/16 05:08:27;;;;;;;0.00;0.00;;;;;16.90;100583.00;;;;5128067;27;20468;-80
2022/02/16 05:10:57;;;;;;;0.00;0.00;;;;;17.00;100589.00;;;;5128501;27;20051;-77
2022/02/16 05:13:42;;;;;;;0.00;0.00;;;;;17.00;100578.00;;;;5128202;27;20073;-81
2022/02/16 05:16:12;;;;;;;0.00;0.00;;;;;17.20;100567.00;;;;5128662;27;20043;-77
2022/02/16 05:18:42;;;;;;;0.00;0.00;;;;;17.20;100590.00;;;;5128293;27;20047;-79
2022/02/16 05:21:15;;;;;;;0.00;0.00;;;;;17.20;100562.00;;;;5128472;27;20043;-79
2022/02/16 05:23:44;;;;;;;0.00;0.00;;;;;17.30;100562.00;;;;5128529;27;20051;-77
2022/02/16 05:26:17;;;;;;;0.00;0.00;;;;;17.30;100576.00;;;;5112466;27;20043;-77
2022/02/16 05:28:48;;;;;;;0.00;0.00;;;;;17.20;100567.00;;;;5128324;27;21070;-78
2022/02/16 05:31:17;;;;;;;0.00;0.00;;;;;17.10;100564.00;;;;5128362;27;20054;-78
2022/02/16 05:33:46;;;;;;;0.00;0.00;;;;;17.10;100567.00;;;;5128281;27;20047;-81
2022/02/16 05:36:20;;;;;;;0.00;0.00;;;;;17.00;100568.00;;;;5128217;27;20450;-80
2022/02/16 05:38:50;;;;;;;0.00;0.00;;;;;17.00;100563.00;;;;5128295;27;20040;-78
2022/02/16 05:41:20;;;;;;;0.00;0.00;;;;;16.90;100569.00;;;;5128207;27;20042;-78
2022/02/16 05:43:50;;;;;;;0.00;0.00;;;;;16.80;100564.00;;;;5127983;27;20059;-77
2022/02/16 05:46:20;;;;;;;0.00;0.00;;;;;16.80;100563.00;;;;5110710;27;20047;-80
2022/02/16 05:48:49;;;;;;;0.00;0.00;;;;;16.80;100563.00;;;;5128959;27;20051;-77
2022/02/16 05:51:19;;;;;;;0.00;0.00;;;;;16.80;100559.00;;;;5127083;27;20058;-81
2022/02/16 05:53:49;;;;;;;0.05;0.05;;;;;16.90;100537.00;;;;5128295;27;20057;-79
2022/02/16 05:56:19;;;;;;;0.00;0.00;;;;;16.80;100556.00;;;;5129447;27;20039;-79
2022/02/16 05:58:49;;;;;;;0.45;0.45;;;;;16.80;100530.00;;;;5127621;27;20096;-78
2022/02/16 06:01:19;;;;;;;0.00;0.00;;;;;16.70;100549.00;;;;5127632;27;20441;-79
2022/02/16 06:03:55;;;;;;;0.00;0.00;;;;;16.60;100545.00;;;;5128045;27;20127;-78
2022/02/16 06:06:26;;;;;;;0.00;0.00;;;;;16.50;100550.00;;;;5127341;27;20042;-78
2022/02/16 06:08:56;;;;;;;0.00;0.00;;;;;16.50;100552.00;;;;5126676;27;20065;-79
2022/02/16 06:11:26;;;;;;;0.00;0.00;;;;;16.50;100536.00;;;;5128266;27;20100;-80
2022/02/16 06:13:59;;;;;;;0.00;0.00;;;;;16.50;100553.00;;;;5127610;27;20070;-79
2022/02/16 06:16:29;;;;;;;0.00;0.00;;;;;16.40;100545.00;;;;5127792;27;20043;-76
2022/02/16 06:18:59;;;;;;;0.00;0.00;;;;;16.40;100549.00;;;;5127649;27;20138;-77
2022/02/16 06:21:29;;;;;;;0.00;0.00;;;;;16.40;100558.00;;;;5127501;27;20051;-79
2022/02/16 06:23:58;;;;;;;0.00;0.00;;;;;16.40;100561.00;;;;5127218;27;20070;-78
2022/02/16 06:26:28;;;;;;;0.00;0.00;;;;;16.30;100548.00;;;;5110795;27;20051;-77
2022/02/16 06:28:57;;;;;;;0.00;0.00;;;;;16.30;100557.00;;;;5110624;27;20150;-78
2022/02/16 06:31:31;;;;;;;0.00;0.00;;;;;16.20;100560.00;;;;5127349;27;20134;-79
2022/02/16 06:34:01;;;;;;;0.00;0.00;;;;;16.10;100555.00;;;;5127009;27;20043;-78
2022/02/16 06:36:31;;;;;;;0.00;0.00;;;;;16.10;100565.00;;;;5127018;27;20126;-79
2022/02/16 06:39:00;;;;;;;0.00;0.00;;;;;16.00;100566.00;;;;5127343;27;20054;-80
2022/02/16 06:41:30;;;;;;;6.22;5.28;;;;;16.00;100545.00;;;;5110729;27;20051;-79
2022/02/16 06:43:59;;;;;;;0.00;0.00;;;;;16.00;100544.00;;;;5127147;27;20065;-78
2022/02/16 06:46:29;;;;;;;0.00;0.00;;;;;16.00;100563.00;;;;5110618;27;20494;-80
2022/02/16 06:48:59;;;;;;;0.00;0.00;;;;;16.00;100555.00;;;;5127311;27;20615;-79
2022/02/16 06:51:31;;;;;;;0.00;0.00;;;;;16.00;100561.00;;;;5126576;27;20051;-77
2022/02/16 06:54:01;;;;;;;0.00;0.00;;;;;16.00;100547.00;;;;5126572;27;20142;-80
2022/02/16 06:56:31;;;;;;;0.00;0.00;;;;;15.90;100544.00;;;;5127369;27;20047;-79
2022/02/16 06:59:19;;;;;;;0.00;0.00;;;;;15.90;100563.00;;;;5128469;27;20043;-81
2022/02/16 07:01:52;;;;;;;0.00;0.00;;;;;15.90;100548.00;;;;5126003;27;20039;-81
2022/02/16 07:04:22;;;;;;;0.00;0.00;;;;;15.80;100558.00;;;;5126736;27;20108;-78
2022/02/16 07:06:52;;;;;;;0.00;0.00;;;;;15.80;100542.00;;;;5126084;27;20871;-80
2022/02/16 07:09:24;;;;;;;0.00;0.00;;;;;15.80;100550.00;;;;5125870;27;20383;-77
2022/02/16 07:11:55;;;;;;;0.00;0.00;;;;;15.70;100571.00;;;;5126145;27;20059;-79
2022/02/16 07:14:25;;;;;;;0.00;0.00;;;;;15.70;100559.00;;;;5127112;27;20051;-77
2022/02/16 07:16:57;;;;;;;0.00;0.00;;;;;15.70;100564.00;;;;5126660;27;20075;-78
2022/02/16 07:19:28;;;;;;;0.00;0.00;;;;;15.60;100575.00;;;;5125849;27;20142;-81
2022/02/16 07:22:10;;;;;;;0.00;0.00;;;;;15.60;100582.00;;;;5126308;27;20468;-78
2022/02/16 07:24:40;;;;;;;0.00;0.00;;;;;15.60;100565.00;;;;5109924;27;20135;-78
2022/02/16 07:27:10;;;;;;;0.00;0.00;;;;;15.50;100573.00;;;;5126814;27;20043;-81
2022/02/16 07:29:40;;;;;;;0.00;0.00;;;;;15.40;100572.00;;;;5126399;27;20067;-80
2022/02/16 07:32:10;;;;;;;0.00;0.00;;;;;15.40;100560.00;;;;5126129;27;20043;-79
2022/02/16 07:34:41;;;;;;;0.00;0.00;;;;;15.40;100563.00;;;;5126467;27;20600;-81
2022/02/16 07:37:10;;;;;;;0.00;0.00;;;;;15.50;100570.00;;;;5109475;27;20051;-77
2022/02/16 07:39:40;;;;;;;0.00;0.00;;;;;15.40;100576.00;;;;5126236;27;20570;-79
2022/02/16 07:42:10;;;;;;;0.00;0.00;;;;;15.40;100580.00;;;;5126562;27;20822;-80
2022/02/16 07:44:48;;;;;;;0.00;0.00;;;;;15.40;100576.00;;;;5125896;27;20061;-77
2022/02/16 07:47:21;;;;;;;0.00;0.00;;;;;15.40;100594.00;;;;5127445;27;20518;-78
2022/02/16 07:49:53;;;;;;;0.00;0.00;;;;;15.40;100596.00;;;;5126433;27;20066;-80
2022/02/16 07:52:41;;;;;;;0.00;0.00;;;;;15.40;100578.00;;;;5126401;27;20045;-77
2022/02/16 07:55:26;;;;;;;0.00;0.00;;;;;15.40;100582.00;;;;5125265;28;20043;-79
2022/02/16 07:58:01;;;;;;;0.00;0.00;;;;;15.40;100567.00;;;;5125929;28;20049;-77
2022/02/16 08:00:37;;;;;;;0.00;0.00;;;;;15.30;100595.00;;;;5126018;28;20057;-77
2022/02/16 08:03:18;;;;;;;0.00;0.00;;;;;15.30;100575.00;;;;5126000;28;20801;-80
2022/02/16 08:05:50;;;;;;;0.00;0.00;;;;;15.40;100568.00;;;;5125678;28;20395;-76
2022/02/16 08:08:25;;;;;;;0.00;0.00;;;;;15.20;100599.00;;;;5125907;28;20139;-78
2022/02/16 08:10:56;;;;;;;0.00;0.00;;;;;15.20;100594.00;;;;5125528;28;20499;-79
2022/02/16 08:13:28;;;;;;;0.00;0.00;;;;;15.30;100588.00;;;;5125590;27;20715;-80
2022/02/16 08:16:16;;;;;;;0.00;0.00;;;;;15.30;100581.00;;;;5131436;27;20054;-78
2022/02/16 08:19:07;;;;;;;0.00;0.00;;;;;15.20;100589.00;;;;5116258;27;20054;-79
2022/02/16 08:21:38;;;;;;;0.00;0.00;;;;;15.40;100566.00;;;;5129824;27;20051;-77
2022/02/16 08:24:08;;;;;;;0.00;0.00;;;;;15.40;100583.00;;;;5129787;27;20502;-78
2022/02/16 08:26:38;;;;;;;0.00;0.00;;;;;15.40;100570.00;;;;5129772;27;20078;-77
2022/02/16 08:29:08;;;;;;;0.00;0.00;;;;;15.30;100591.00;;;;5113392;27;20553;-79
2022/02/16 08:31:37;;;;;;;0.00;0.00;;;;;15.30;100574.00;;;;5129734;27;20166;-80
2022/02/16 08:34:15;;;;;;;0.00;0.00;;;;;15.20;100598.00;;;;5129851;27;20604;-77
2022/02/16 08:37:06;;;;;;;0.00;0.00;;;;;15.30;100590.00;;;;5128751;27;20047;-79
2022/02/16 08:39:37;;;;;;;0.00;0.00;;;;;15.30;100588.00;;;;5131463;27;20118;-79
2022/02/16 08:42:26;;;;;;;0.00;0.00;;;;;15.20;100608.00;;;;5131193;27;20516;-78
2022/02/16 08:44:58;;;;;;;0.00;0.00;;;;;15.20;100591.00;;;;5128973;27;20525;-80
2022/02/16 08:47:27;;;;;;;0.00;0.00;;;;;15.20;100617.00;;;;5129299;27;20039;-77
2022/02/16 08:49:57;;;;;;;0.00;0.00;;;;;15.30;100617.00;;;;5129499;27;20421;-79
2022/02/16 08:52:27;;;;;;;0.00;0.00;;;;;15.30;100620.00;;;;5112822;27;20055;-78
2022/02/16 08:54:57;;;;;;;0.00;0.00;;;;;15.30;100636.00;;;;5129549;27;20700;-80
2022/02/16 08:57:27;;;;;;;0.00;0.00;;;;;15.20;100619.00;;;;5130230;27;20074;-79
2022/02/16 08:59:56;;;;;;;0.00;0.00;;;;;15.20;100644.00;;;;5129801;27;20057;-80
2022/02/16 09:02:26;;;;;;;0.00;0.00;;;;;15.10;100645.00;;;;5130518;27;20395;-76
2022/02/16 09:04:55;;;;;;;0.00;0.00;;;;;15.10;100643.00;;;;5129758;27;20058;-77
2022/02/16 09:07:30;;;;;;;0.00;0.00;;;;;15.10;100648.00;;;;5129376;27;20045;-78
2022/02/16 09:10:06;;;;;;;0.00;0.00;;;;;15.20;100653.00;;;;5129511;27;20096;-78
2022/02/16 09:12:37;;;;;;;0.00;0.00;;;;;15.20;100648.00;;;;5113119;27;20081;-77
2022/02/16 09:15:07;;;;;;;0.00;0.00;;;;;15.20;100640.00;;;;5132102;27;20053;-78
2022/02/16 09:17:37;;;;;;;0.00;0.00;;;;;15.20;100648.00;;;;5131687;27;20291;-78
2022/02/16 09:20:07;;;;;;;0.00;0.00;;;;;15.20;100628.00;;;;5131051;27;20051;-78
2022/02/16 09:22:37;;;;;;;0.00;0.00;;;;;15.30;100652.00;;;;5130325;27;20118;-77
2022/02/16 09:25:07;;;;;;;0.00;0.00;;;;;15.30;100644.00;;;;5129880;27;20513;-78
2022/02/16 09:27:37;;;;;;;0.00;0.00;;;;;15.30;100652.00;;;;5130895;27;20680;-78
2022/02/16 09:30:07;;;;;;;0.00;0.00;;;;;15.30;100668.00;;;;5130970;27;20043;-77
2022/02/16 09:32:38;;;;;;;0.00;0.00;;;;;15.20;100667.00;;;;5130794;27;20035;-78
2022/02/16 09:35:08;;;;;;;0.00;0.00;;;;;15.20;100648.00;;;;5128772;27;20084;-77
2022/02/16 09:37:38;;;;;;;0.00;0.00;;;;;15.40;100674.00;;;;5130707;27;20035;-78
2022/02/16 09:40:07;;;;;;;0.00;0.00;;;;;15.40;100671.00;;;;5130309;27;20050;-77
2022/02/16 09:42:37;;;;;;;0.00;0.00;;;;;15.50;100665.00;;;;5132300;27;20501;-80
2022/02/16 09:45:10;;;;;;;0.00;0.00;;;;;15.60;100668.00;;;;5130532;27;20642;-77
2022/02/16 09:47:45;;;;;;;0.00;0.00;;;;;15.60;100664.00;;;;5128571;27;20059;-77
2022/02/16 09:50:15;;;;;;;0.00;0.00;;;;;15.70;100675.00;;;;5129680;27;20399;-78
2022/02/16 09:52:45;;;;;;;0.00;0.00;;;;;15.80;100650.00;;;;5129898;27;20050;-79
2022/02/16 09:55:14;;;;;;;0.00;0.00;;;;;15.80;100658.00;;;;5129861;27;20409;-79
2022/02/16 09:57:44;;;;;;;0.00;0.00;;;;;15.90;100639.00;;;;5130681;27;20039;-79
2022/02/16 10:00:15;;;;;;;0.00;0.00;;;;;16.00;100652.00;;;;5129432;27;20067;-79
2022/02/16 10:02:46;;;;;;;0.00;0.00;;;;;16.10;100658.00;;;;5129315;27;20125;-80
2022/02/16 10:05:18;;;;;;;0.00;0.00;;;;;16.30;100668.00;;;;5130201;27;20055;-76
2022/02/16 10:07:49;;;;;;;0.00;0.00;;;;;16.60;100678.00;;;;5129541;27;20047;-80
2022/02/16 10:10:22;;;;;;;0.00;0.00;;;;;16.80;100671.00;;;;5129323;27;20118;-77
2022/02/16 10:12:54;;;;;;;0.00;0.00;;;;;17.10;100654.00;;;;5127724;27;20081;-77
2022/02/16 10:15:36;;;;;;;0.00;0.00;;;;;17.70;100616.00;;;;5129440;27;20035;-80
2022/02/16 10:18:14;;;;;;;0.00;0.00;;;;;21.20;100464.00;;;;5128502;27;20077;-80
2022/02/16 10:20:46;;;;;;;0.00;0.00;;;;;25.80;100453.00;;;;5127699;27;20047;-79
2022/02/16 10:23:18;;;;;;;0.00;0.00;;;;;28.10;100458.00;;;;5127874;27;20043;-78
2022/02/16 10:25:51;;;;;;;0.00;0.00;;;;;29.40;100461.00;;;;5128906;27;20049;-78
2022/02/16 10:28:22;;;;;;;0.00;0.00;;;;;30.00;100468.00;;;;5128661;27;20059;-82
2022/02/16 10:31:01;;;;;;;0.00;0.00;;;;;30.60;100465.00;;;;5128867;27;20034;-81
2022/02/16 10:33:35;;;;;;;0.00;0.00;;;;;30.90;100458.00;;;;5127023;27;20532;-78
2022/02/16 10:36:12;;;;;;;0.57;0.57;;;;;31.60;100457.00;;;;5127280;27;20047;-77
2022/02/16 10:39:03;;;;;;;0.00;0.00;;;;;32.30;100452.00;;;;5127104;27;20043;-81
2022/02/16 10:41:42;;;;;;;0.00;0.00;;;;;33.00;100466.00;;;;5127498;27;20043;-81
2022/02/16 10:44:31;;;;;;;0.00;0.00;;;;;33.40;100456.00;;;;5128084;27;20055;-79
2022/02/16 10:47:09;;;;;;;0.00;0.00;;;;;32.80;100461.00;;;;5129374;27;20035;-80
2022/02/16 10:49:43;;;;;;;0.00;0.00;;;;;33.00;100459.00;;;;5126988;27;20545;-81
2022/02/16 10:52:20;;;;;;;0.00;0.00;;;;;33.50;100463.00;;;;5126607;27;20394;-77
2022/02/16 10:54:52;;;;;;;0.00;0.00;;;;;33.00;100453.00;;;;5128011;27;20050;-79
2022/02/16 10:57:25;;;;;;;0.00;0.00;;;;;32.20;100471.00;;;;5127043;27;20051;-82
2022/02/16 10:59:58;;;;;;;0.00;0.00;;;;;31.70;100441.00;;;;5128584;27;20457;-79
2022/02/16 11:02:28;;;;;;;0.10;0.10;;;;;32.50;100440.00;;;;5127482;27;20150;-82
2022/02/16 11:04:58;;;;;;;0.00;0.00;;;;;32.80;100426.00;;;;5127680;27;20046;-78
2022/02/16 11:07:32;;;;;;;0.00;0.00;;;;;32.50;100442.00;;;;5128335;27;20058;-77
2022/02/16 11:10:06;;;;;;;0.00;0.00;;;;;32.60;100437.00;;;;5126837;27;20402;-79
2022/02/16 11:12:37;;;;;;;0.00;0.00;;;;;33.10;100449.00;;;;5128130;27;20047;-77
2022/02/16 11:15:07;;;;;;;0.52;0.15;;;;;32.90;100449.00;;;;5127580;27;20043;-81
2022/02/16 11:17:37;;;;;;;0.00;0.00;;;;;32.80;100441.00;;;;5128168;27;20031;-76
2022/02/16 11:20:25;;;;;;;0.00;0.00;;;;;33.30;100436.00;;;;5127742;27;20616;-80
2022/02/16 11:23:00;;;;;;;;;;;;;33.40;100439.00;;;;5128398;27;20134;-82
2022/02/16 11:25:40;;;;;;;21.30;1.55;;;;;32.90;100432.00;;;;5126928;27;20279;-78
2022/02/16 11:28:12;;;;;;;0.63;0.52;;;;;33.10;100405.00;;;;5127998;27;20095;-81
2022/02/16 11:30:48;;;;;;;0.00;0.00;;;;;33.90;100406.00;;;;5127354;27;20544;-79
2022/02/16 11:33:25;;;;;;;0.00;0.00;;;;;34.20;100422.00;;;;5126696;27;20084;-82
2022/02/16 11:35:59;;;;;;;0.00;0.00;;;;;34.90;100422.00;;;;5128203;27;20046;-82
2022/02/16 11:38:46;;;;;;;0.00;0.00;;;;;35.40;100417.00;;;;5127407;27;20406;-77
2022/02/16 11:41:28;;;;;;;0.00;0.00;;;;;35.00;100418.00;;;;5126197;27;20416;-81
2022/02/16 11:44:08;;;;;;;0.00;0.00;;;;;34.30;100420.00;;;;5127195;27;20051;-80
2022/02/16 11:46:54;;;;;;;0.00;0.00;;;;;34.30;100416.00;;;;5125499;27;20050;-83
2022/02/16 11:49:26;;;;;;;0.00;0.00;;;;;33.90;100432.00;;;;5127002;27;21108;-84
2022/02/16 11:51:57;;;;;;;0.20;0.20;;;;;34.20;100439.00;;;;5126851;27;20055;-81
2022/02/16 11:54:46;;;;;;;0.00;0.00;;;;;33.20;100446.00;;;;5126923;27;20078;-81
2022/02/16 11:57:38;;;;;;;0.28;0.28;;;;;32.50;100448.00;;;;5128360;28;20448;-79
2022/02/16 12:00:23;;;;;;;0.00;0.00;;;;;32.00;100472.00;;;;5125861;28;20599;-80
2022/02/16 12:02:59;;;;;;;0.08;0.08;;;;;32.00;100476.00;;;;5127459;27;20051;-80
2022/02/16 12:05:56;;;;;;;0.00;0.00;;;;;31.30;100491.00;;;;5126979;28;20047;-80
2022/02/16 12:08:39;;;;;;;0.00;0.00;;;;;30.80;100476.00;;;;5127077;28;20053;-80
2022/02/16 12:11:29;;;;;;;0.00;0.00;;;;;31.00;100534.00;;;;5127044;28;20437;-81
2022/02/16 12:14:02;;;;;;;0.00;0.00;;;;;30.90;100583.00;;;;5126329;28;20046;-81
2022/02/16 12:16:42;;;;;;;0.00;0.00;;;;;29.40;100594.00;;;;5127103;28;20410;-80
2022/02/16 12:19:20;;;;;;;0.00;0.00;;;;;28.30;100598.00;;;;5127507;28;20494;-78
2022/02/16 12:21:53;;;;;;;0.00;0.00;;;;;29.00;100603.00;;;;5126037;28;20031;-80
2022/02/16 12:24:26;;;;;;;0.45;0.45;;;;;29.50;100614.00;;;;5109657;28;20047;-79
2022/02/16 12:26:58;;;;;;;0.10;0.10;;;;;29.30;100602.00;;;;5125299;28;20096;-79
2022/02/16 12:29:34;;;;;;;0.03;0.03;;;;;28.80;100611.00;;;;5127028;27;20043;-80
2022/02/16 12:32:19;;;;;;;0.00;0.00;;;;;29.60;100593.00;;;;5127300;27;20047;-82
2022/02/16 12:34:49;;;;;;;0.00;0.00;;;;;28.90;100581.00;;;;5127057;28;20501;-79
2022/02/16 12:37:18;;;;;;;0.00;0.00;;;;;28.40;100601.00;;;;5125608;28;20047;-77